Terminal Aerodrome Forecast
Issued by NWS

Current Version | Previous Version | Graphics & Text | Print | Product List | Glossary On
Versions: 1 2 3 4 5 6 7 8 9 10 11 12 13 14 15 16 17 18 19 20 21 22 23
000
FTUS41 KPBZ 190800 AAA
TAFMGW
TAF AMD
KMGW 190805Z 1908/2006 VRB02KT P6SM BKN090
     FM191000 VRB02KT 1 1/2SM BR SCT005
     FM191300 VRB04KT P6SM SCT250
     FM200500 17006KT P6SM VCSH BKN040=

USA.gov is the U.S. government's official web portal to all federal, state and local government web resources and services.